createdAt,value
2018-02-04T00:01:33.974Z,0.20
2018-02-04T00:04:00.184Z,0.20
2018-02-04T00:06:26.352Z,0.20
2018-02-04T00:08:53.289Z,0.20
2018-02-04T00:11:19.504Z,0.10
2018-02-04T00:13:45.704Z,0.10
2018-02-04T00:16:11.847Z,0.00
2018-02-04T00:18:37.986Z,0.10
2018-02-04T00:21:04.323Z,0.10
2018-02-04T00:23:30.620Z,0.10
2018-02-04T00:25:56.843Z,0.00
2018-02-04T00:28:23.924Z,0.00
2018-02-04T00:30:50.124Z,0.10
2018-02-04T00:33:16.447Z,0.10
2018-02-04T00:35:42.737Z,0.10
2018-02-04T00:38:09.246Z,0.10
2018-02-04T00:40:35.391Z,0.10
2018-02-04T00:43:02.464Z,0.10
2018-02-04T00:45:28.606Z,0.00
2018-02-04T00:47:54.774Z,0.00
2018-02-04T00:50:20.932Z,0.00
2018-02-04T00:52:47.097Z,0.00
2018-02-04T00:55:13.279Z,-0.10
2018-02-04T00:57:39.410Z,-0.10
2018-02-04T01:00:06.608Z,-0.20
2018-02-04T01:02:33.760Z,-0.10
2018-02-04T01:05:00.913Z,-0.10
2018-02-04T01:07:27.860Z,0.00
2018-02-04T01:09:54.041Z,-0.10
2018-02-04T01:12:20.455Z,0.00
2018-02-04T01:14:46.608Z,0.10
2018-02-04T01:17:14.172Z,0.20
2018-02-04T01:19:40.334Z,0.10
2018-02-04T01:22:06.549Z,0.10
2018-02-04T01:24:32.772Z,0.10
2018-02-04T01:26:59.709Z,0.10
2018-02-04T01:29:25.890Z,0.10
2018-02-04T01:31:52.062Z,0.10
2018-02-04T01:34:18.225Z,0.00
2018-02-04T01:36:45.111Z,0.10
2018-02-04T01:39:11.327Z,0.00
2018-02-04T01:41:37.471Z,0.00
2018-02-04T01:44:03.643Z,0.00
2018-02-04T01:46:30.546Z,0.00
2018-02-04T01:48:56.751Z,0.00
2018-02-04T01:51:23.050Z,-0.10
2018-02-04T01:56:22.071Z,-0.20
2018-02-04T01:58:48.281Z,-0.20
2018-02-04T02:01:15.183Z,-0.30
2018-02-04T02:03:41.358Z,-0.30
2018-02-04T02:06:08.273Z,-0.20
2018-02-04T02:08:34.447Z,-0.20
2018-02-04T02:11:06.662Z,-0.20
2018-02-04T02:13:32.843Z,-0.10
2018-02-04T02:15:58.987Z,-0.10
2018-02-04T02:18:25.915Z,-0.10
2018-02-04T02:20:52.087Z,-0.20
2018-02-04T02:23:18.261Z,-0.10
2018-02-04T02:25:44.439Z,-0.20
2018-02-04T02:28:10.570Z,-0.20
2018-02-04T02:30:37.500Z,-0.20
2018-02-04T02:33:03.701Z,-0.20
2018-02-04T02:35:29.905Z,-0.10
2018-02-04T02:37:56.110Z,-0.10
2018-02-04T02:40:23.049Z,-0.10
2018-02-04T02:42:49.985Z,-0.10
2018-02-04T02:45:16.143Z,-0.10
2018-02-04T02:47:42.321Z,-0.10
2018-02-04T02:50:08.505Z,-0.10
2018-02-04T02:52:34.712Z,-0.10
2018-02-04T02:55:00.882Z,-0.20
2018-02-04T02:57:27.112Z,-0.10
2018-02-04T02:59:53.292Z,-0.10
2018-02-04T03:02:24.499Z,-0.10
2018-02-04T03:04:50.673Z,-0.20
2018-02-04T03:07:16.826Z,-0.20
2018-02-04T03:09:43.012Z,-0.20
2018-02-04T03:12:09.179Z,-0.20
2018-02-04T03:14:35.375Z,-0.20
2018-02-04T03:17:01.590Z,-0.30
2018-02-04T03:19:28.520Z,-0.40
2018-02-04T03:21:55.414Z,-0.40
2018-02-04T03:24:21.619Z,-0.50
2018-02-04T03:26:47.846Z,-0.40
2018-02-04T03:29:14.011Z,-0.50
2018-02-04T03:31:40.227Z,-0.50
2018-02-04T03:34:06.397Z,-0.50
2018-02-04T03:36:33.334Z,-0.50
2018-02-04T03:39:00.258Z,-0.50
2018-02-04T03:41:26.483Z,-0.50
2018-02-04T03:43:52.651Z,-0.50
2018-02-04T03:46:18.846Z,-0.50
2018-02-04T03:48:45.006Z,-0.60
2018-02-04T03:51:11.175Z,-0.60
2018-02-04T03:53:37.373Z,-0.60
2018-02-04T03:56:03.570Z,-0.60
2018-02-04T03:58:30.519Z,-0.60
2018-02-04T04:00:56.686Z,-0.60
2018-02-04T04:03:23.707Z,-0.70
2018-02-04T04:05:49.866Z,-0.70
2018-02-04T04:08:16.035Z,-0.70
2018-02-04T04:10:42.960Z,-0.70
2018-02-04T04:13:09.127Z,-0.80
2018-02-04T04:15:35.278Z,-0.80
2018-02-04T04:18:01.480Z,-0.80
2018-02-04T04:20:27.643Z,-0.80
2018-02-04T04:22:53.834Z,-0.80
2018-02-04T04:25:20.019Z,-0.90
2018-02-04T04:27:46.934Z,-1.00
2018-02-04T04:30:13.176Z,-1.00
2018-02-04T04:32:39.333Z,-1.00
2018-02-04T04:35:05.589Z,-1.00
2018-02-04T04:37:31.770Z,-1.00
2018-02-04T04:39:57.954Z,-1.00
2018-02-04T04:42:24.131Z,-0.90
2018-02-04T04:44:50.327Z,-0.90
2018-02-04T04:47:16.478Z,-0.90
2018-02-04T04:49:42.687Z,-1.00
2018-02-04T04:52:09.624Z,-1.00
2018-02-04T04:54:35.845Z,-1.00
2018-02-04T04:57:02.023Z,-0.90
2018-02-04T04:59:28.214Z,-0.90
2018-02-04T05:01:54.667Z,-0.90
2018-02-04T05:04:20.839Z,-0.90
2018-02-04T05:06:47.035Z,-0.90
2018-02-04T05:09:13.970Z,-1.10
2018-02-04T05:11:40.892Z,-1.10
2018-02-04T05:14:07.091Z,-1.10
2018-02-04T05:16:33.273Z,-1.10
2018-02-04T05:19:00.191Z,-1.00
2018-02-04T05:21:26.384Z,-1.10
2018-02-04T05:23:52.533Z,-1.00
2018-02-04T05:26:18.724Z,-1.10
2018-02-04T05:28:44.891Z,-1.10
2018-02-04T05:31:11.088Z,-1.10
2018-02-04T05:33:37.224Z,-1.10
2018-02-04T05:36:04.175Z,-1.10
2018-02-04T05:38:30.359Z,-1.10
2018-02-04T05:40:56.510Z,-1.10
2018-02-04T05:43:22.703Z,-1.20
2018-02-04T05:45:49.739Z,-1.40
2018-02-04T05:48:16.698Z,-1.40
2018-02-04T05:50:42.894Z,-1.40
2018-02-04T05:53:09.107Z,-1.50
2018-02-04T05:55:35.325Z,-1.60
2018-02-04T05:58:01.520Z,-1.60
2018-02-04T06:00:27.709Z,-1.60
2018-02-04T06:02:53.884Z,-1.60
2018-02-04T06:05:20.089Z,-1.60
2018-02-04T06:07:46.262Z,-1.60
2018-02-04T06:10:12.399Z,-1.70
2018-02-04T06:12:38.597Z,-1.70
2018-02-04T06:15:04.799Z,-1.70
2018-02-04T06:17:30.950Z,-1.80
2018-02-04T06:19:57.151Z,-1.70
2018-02-04T06:22:23.350Z,-1.70
2018-02-04T06:24:50.273Z,-1.80
2018-02-04T06:27:16.450Z,-1.80
2018-02-04T06:29:42.627Z,-1.80
2018-02-04T06:32:08.780Z,-1.80
2018-02-04T06:34:35.721Z,-1.80
2018-02-04T06:37:02.629Z,-1.90
2018-02-04T06:39:28.823Z,-1.90
2018-02-04T06:41:55.279Z,-1.80
2018-02-04T06:44:21.474Z,-1.80
2018-02-04T06:46:47.636Z,-1.90
2018-02-04T06:49:13.799Z,-1.90
2018-02-04T06:51:40.716Z,-1.90
2018-02-04T06:54:06.895Z,-1.90
2018-02-04T06:56:33.098Z,-1.90
2018-02-04T06:59:00.014Z,-1.90
2018-02-04T07:01:26.191Z,-1.90
2018-02-04T07:03:52.373Z,-1.90
2018-02-04T07:06:18.554Z,-1.90
2018-02-04T07:08:44.721Z,-1.80
2018-02-04T07:11:11.353Z,-1.80
2018-02-04T07:13:38.289Z,-1.90
2018-02-04T07:16:04.459Z,-1.90
2018-02-04T07:18:31.391Z,-1.80
2018-02-04T07:20:57.645Z,-1.90
2018-02-04T07:23:23.891Z,-1.80
2018-02-04T07:25:50.056Z,-1.80
2018-02-04T07:28:16.270Z,-1.80
2018-02-04T07:30:43.254Z,-1.60
2018-02-04T07:33:10.203Z,-1.60
2018-02-04T07:35:37.156Z,-1.60
2018-02-04T07:38:03.403Z,-1.60
2018-02-04T07:40:29.603Z,-1.50
2018-02-04T07:42:55.808Z,-1.50
2018-02-04T07:45:21.970Z,-1.50
2018-02-04T07:47:48.155Z,-1.40
2018-02-04T07:50:14.330Z,-1.40
2018-02-04T07:52:40.483Z,-1.40
2018-02-04T07:55:06.740Z,-1.40
2018-02-04T07:57:33.655Z,-1.40
2018-02-04T07:59:59.946Z,-1.40
2018-02-04T08:02:26.826Z,-1.40
2018-02-04T08:04:53.045Z,-1.40
2018-02-04T08:07:19.230Z,-1.30
2018-02-04T08:09:46.130Z,-1.20
2018-02-04T08:12:12.351Z,-1.20
2018-02-04T08:14:38.516Z,-1.10
2018-02-04T08:17:04.774Z,-1.10
2018-02-04T08:19:30.995Z,-1.10
2018-02-04T08:21:57.136Z,-1.10
2018-02-04T08:24:23.375Z,-1.10
2018-02-04T08:26:49.528Z,-1.00
2018-02-04T08:29:15.687Z,-1.00
2018-02-04T08:31:41.841Z,-1.00
2018-02-04T08:34:08.043Z,-0.90
2018-02-04T08:36:34.232Z,-0.90
2018-02-04T08:39:00.411Z,-0.90
2018-02-04T08:41:26.586Z,-0.80
2018-02-04T08:43:52.751Z,-0.80
2018-02-04T08:46:19.038Z,-0.70
2018-02-04T08:48:45.235Z,-0.70
2018-02-04T08:51:11.510Z,-0.60
2018-02-04T08:53:38.422Z,-0.60
2018-02-04T08:56:04.619Z,-0.60
2018-02-04T08:58:30.804Z,-0.50
2018-02-04T09:00:57.707Z,-0.50
2018-02-04T09:03:23.935Z,-0.50
2018-02-04T09:05:50.190Z,-0.40
2018-02-04T09:08:16.401Z,-0.40
2018-02-04T09:10:42.617Z,-0.30
2018-02-04T09:13:08.811Z,-0.30
2018-02-04T09:15:35.070Z,-0.30
2018-02-04T09:18:01.204Z,-0.20
2018-02-04T09:20:27.455Z,-0.10
2018-02-04T09:22:53.660Z,-0.10
2018-02-04T09:25:19.862Z,0.10
2018-02-04T09:27:46.052Z,0.10
2018-02-04T09:30:12.369Z,0.10
2018-02-04T09:32:39.303Z,0.30
2018-02-04T09:35:05.515Z,0.20
2018-02-04T09:37:31.686Z,0.30
2018-02-04T09:39:58.593Z,0.40
2018-02-04T09:42:24.779Z,0.30
2018-02-04T09:44:51.060Z,0.40
2018-02-04T09:47:17.250Z,0.40
2018-02-04T09:49:43.414Z,0.40
2018-02-04T09:52:09.660Z,0.40
2018-02-04T09:54:38.954Z,0.50
2018-02-04T09:57:06.054Z,0.50
2018-02-04T09:59:32.259Z,0.50
2018-02-04T10:01:58.416Z,0.50
2018-02-04T10:04:24.878Z,0.60
2018-02-04T10:06:51.113Z,0.60
2018-02-04T10:09:18.053Z,0.70
2018-02-04T10:11:44.992Z,0.70
2018-02-04T10:14:11.931Z,0.80
2018-02-04T10:16:38.110Z,0.70
2018-02-04T10:19:04.297Z,0.80
2018-02-04T10:21:30.743Z,0.80
2018-02-04T10:23:56.936Z,0.80
2018-02-04T10:26:23.863Z,0.90
2018-02-04T10:28:50.123Z,0.90
2018-02-04T10:31:17.048Z,1.00
2018-02-04T10:33:44.067Z,1.00
2018-02-04T10:36:10.247Z,1.00
2018-02-04T10:38:37.304Z,3.10
2018-02-04T10:41:03.568Z,3.10
2018-02-04T10:43:30.054Z,5.50
2018-02-04T10:45:56.281Z,7.60
2018-02-04T10:48:23.249Z,8.50
2018-02-04T10:50:55.665Z,8.40
2018-02-04T10:53:21.862Z,9.20
2018-02-04T10:55:48.180Z,10.70
2018-02-04T10:58:14.440Z,11.70
2018-02-04T11:00:40.725Z,11.30
2018-02-04T11:03:07.185Z,12.00
2018-02-04T11:05:33.606Z,12.20
2018-02-04T11:07:59.930Z,11.90
2018-02-04T11:10:26.308Z,12.00
2018-02-04T11:12:52.979Z,11.60
2018-02-04T11:15:23.450Z,11.20
2018-02-04T11:17:49.846Z,9.90
2018-02-04T11:20:16.246Z,9.80
2018-02-04T11:22:42.602Z,10.60
2018-02-04T11:25:08.930Z,9.80
2018-02-04T11:27:36.046Z,9.20
2018-02-04T11:30:02.413Z,9.20
2018-02-04T11:32:28.753Z,9.40
2018-02-04T11:34:55.050Z,8.20
2018-02-04T11:37:22.131Z,4.70
2018-02-04T11:39:48.442Z,4.70
2018-02-04T11:42:15.719Z,3.70
2018-02-04T11:44:43.292Z,3.30
2018-02-04T11:47:09.504Z,3.30
2018-02-04T11:49:35.732Z,3.00
2018-02-04T11:52:02.114Z,2.80
2018-02-04T11:54:29.107Z,2.60
2018-02-04T11:56:55.306Z,2.60
2018-02-04T11:59:21.600Z,2.70
2018-02-04T12:01:47.779Z,2.70
2018-02-04T12:04:14.075Z,2.70
2018-02-04T12:06:40.322Z,2.70
2018-02-04T12:09:07.252Z,2.60
2018-02-04T12:11:34.278Z,2.80
2018-02-04T12:14:00.427Z,2.80
2018-02-04T12:16:27.372Z,3.00
2018-02-04T12:18:53.684Z,3.00
2018-02-04T12:21:19.837Z,3.10
2018-02-04T12:23:46.022Z,3.10
2018-02-04T12:26:12.182Z,3.10
2018-02-04T12:28:39.329Z,3.10
2018-02-04T12:31:06.238Z,3.10
2018-02-04T12:33:32.436Z,3.10
2018-02-04T12:35:58.752Z,3.20
2018-02-04T12:38:24.983Z,3.10
2018-02-04T12:40:51.152Z,2.90
2018-02-04T12:43:17.411Z,2.90
2018-02-04T12:45:44.308Z,2.70
2018-02-04T12:48:10.640Z,2.70
2018-02-04T12:50:37.033Z,2.60
2018-02-04T12:53:03.339Z,2.70
2018-02-04T12:55:30.348Z,2.60
2018-02-04T12:57:56.717Z,2.50
2018-02-04T13:00:23.070Z,2.50
2018-02-04T13:02:49.382Z,2.40
2018-02-04T13:05:15.624Z,2.30
2018-02-04T13:07:41.811Z,2.30
2018-02-04T13:10:08.119Z,2.30
2018-02-04T13:12:34.322Z,2.20
2018-02-04T13:15:00.486Z,2.20
2018-02-04T13:17:26.831Z,2.20
2018-02-04T13:19:53.826Z,2.10
2018-02-04T13:22:19.989Z,2.10
2018-02-04T13:24:46.292Z,2.10
2018-02-04T13:27:12.511Z,2.00
2018-02-04T13:29:38.724Z,2.00
2018-02-04T13:32:04.874Z,2.00
2018-02-04T13:34:31.044Z,1.90
2018-02-04T13:36:57.226Z,1.80
2018-02-04T13:39:23.428Z,1.80
2018-02-04T13:41:49.878Z,1.70
2018-02-04T13:44:16.177Z,1.70
2018-02-04T13:46:42.388Z,1.70
2018-02-04T13:49:09.324Z,1.80
2018-02-04T13:51:35.543Z,1.70
2018-02-04T13:54:01.797Z,1.70
2018-02-04T13:56:31.315Z,1.70
2018-02-04T13:58:57.499Z,1.70
2018-02-04T14:01:23.781Z,1.60
2018-02-04T14:03:49.937Z,1.60
2018-02-04T14:06:16.387Z,1.50
2018-02-04T14:08:42.748Z,1.50
2018-02-04T14:11:09.051Z,1.50
2018-02-04T14:13:35.213Z,1.50
2018-02-04T14:16:01.429Z,1.60
2018-02-04T14:18:27.604Z,1.50
2018-02-04T14:20:53.791Z,1.60
2018-02-04T14:23:20.803Z,1.50
2018-02-04T14:25:47.757Z,1.50
2018-02-04T14:28:14.712Z,1.50
2018-02-04T14:30:41.639Z,1.50
2018-02-04T14:33:07.895Z,1.50
2018-02-04T14:35:34.093Z,1.50
2018-02-04T14:38:01.147Z,1.40
2018-02-04T14:40:32.356Z,1.40
2018-02-04T14:42:58.531Z,1.40
2018-02-04T14:45:25.490Z,1.40
2018-02-04T14:47:51.733Z,1.40
2018-02-04T14:50:17.902Z,1.40
2018-02-04T14:52:44.134Z,1.40
2018-02-04T14:55:10.400Z,1.50
2018-02-04T14:57:36.562Z,1.50
2018-02-04T15:00:02.794Z,1.40
2018-02-04T15:02:28.980Z,1.40
2018-02-04T15:04:55.182Z,1.40
2018-02-04T15:07:22.845Z,1.30
2018-02-04T15:09:49.151Z,1.30
2018-02-04T15:12:18.078Z,1.30
2018-02-04T15:14:44.259Z,1.20
2018-02-04T15:17:10.493Z,1.10
2018-02-04T15:19:41.375Z,1.10
2018-02-04T15:22:07.716Z,1.00
2018-02-04T15:24:33.984Z,1.10
2018-02-04T15:27:00.192Z,1.00
2018-02-04T15:29:26.489Z,1.00
2018-02-04T15:31:52.650Z,1.00
2018-02-04T15:34:18.920Z,1.00
2018-02-04T15:36:45.123Z,0.90
2018-02-04T15:39:11.531Z,0.90
2018-02-04T15:41:38.205Z,0.90
2018-02-04T15:44:04.428Z,0.80
2018-02-04T15:46:30.704Z,0.80
2018-02-04T15:48:56.866Z,0.70
2018-02-04T15:51:23.098Z,0.80
2018-02-04T15:53:50.391Z,0.80
2018-02-04T15:56:16.603Z,0.80
2018-02-04T15:58:43.480Z,0.80
2018-02-04T16:01:09.642Z,0.80
2018-02-04T16:03:35.912Z,0.70
2018-02-04T16:06:02.101Z,0.70
2018-02-04T16:08:28.326Z,0.70
2018-02-04T16:10:54.605Z,0.80
2018-02-04T16:13:21.568Z,0.80
2018-02-04T16:15:48.767Z,0.70
2018-02-04T16:18:14.944Z,0.80
2018-02-04T16:20:41.100Z,0.80
2018-02-04T16:23:07.326Z,0.80
2018-02-04T16:25:41.804Z,0.80
2018-02-04T16:28:08.006Z,0.80
2018-02-04T16:30:34.275Z,0.80
2018-02-04T16:33:00.434Z,0.80
2018-02-04T16:35:26.690Z,0.80
2018-02-04T16:37:53.606Z,0.80
2018-02-04T16:40:19.835Z,0.80
2018-02-04T16:42:46.032Z,0.80
2018-02-04T16:45:12.222Z,0.80
2018-02-04T16:47:38.425Z,0.80
2018-02-04T16:50:04.646Z,0.80
2018-02-04T16:52:31.559Z,0.80
2018-02-04T16:54:57.759Z,0.80
2018-02-04T16:57:23.982Z,0.70
2018-02-04T16:59:50.167Z,0.70
2018-02-04T17:02:16.407Z,0.70
2018-02-04T17:04:42.569Z,0.70
2018-02-04T17:07:08.775Z,0.70
2018-02-04T17:09:35.035Z,0.70
2018-02-04T17:12:01.217Z,0.70
2018-02-04T17:14:27.444Z,0.70
2018-02-04T17:16:53.719Z,0.70
2018-02-04T17:19:19.947Z,0.70
2018-02-04T17:21:46.112Z,0.70
2018-02-04T17:24:12.333Z,0.70
2018-02-04T17:26:38.565Z,0.70
2018-02-04T17:29:05.501Z,0.70
2018-02-04T17:31:31.676Z,0.70
2018-02-04T17:33:58.856Z,0.80
2018-02-04T17:36:26.122Z,0.80
2018-02-04T17:38:53.039Z,0.80
2018-02-04T17:41:19.496Z,0.80
2018-02-04T17:43:45.683Z,0.80
2018-02-04T17:46:11.883Z,0.80
2018-02-04T17:48:38.938Z,0.80
2018-02-04T17:51:05.230Z,0.80
2018-02-04T17:53:31.415Z,0.90
2018-02-04T17:55:57.598Z,0.90
2018-02-04T17:58:24.088Z,0.90
2018-02-04T18:00:50.283Z,0.90
2018-02-04T18:03:17.218Z,1.00
2018-02-04T18:05:44.165Z,1.00
2018-02-04T18:08:10.418Z,1.00
2018-02-04T18:10:36.891Z,1.00
2018-02-04T18:13:04.187Z,1.00
2018-02-04T18:15:30.446Z,1.00
2018-02-04T18:17:56.611Z,1.00
2018-02-04T18:20:22.926Z,1.00
2018-02-04T18:22:49.106Z,1.10
2018-02-04T18:25:15.318Z,1.10
2018-02-04T18:27:43.271Z,1.10
2018-02-04T18:30:09.729Z,1.10
2018-02-04T18:32:38.167Z,1.10
2018-02-04T18:35:09.183Z,1.10
2018-02-04T18:37:36.863Z,1.10
2018-02-04T18:40:03.888Z,1.00
2018-02-04T18:42:30.068Z,1.10
2018-02-04T18:44:56.332Z,1.10
2018-02-04T18:47:22.587Z,1.10
2018-02-04T18:49:48.909Z,1.20
2018-02-04T18:52:15.087Z,1.20
2018-02-04T18:54:41.274Z,1.20
2018-02-04T18:57:07.435Z,1.20
2018-02-04T18:59:33.834Z,1.20
2018-02-04T19:02:01.008Z,1.20
2018-02-04T19:04:27.194Z,1.20
2018-02-04T19:06:54.166Z,1.20
2018-02-04T19:09:21.618Z,1.20
2018-02-04T19:11:48.064Z,1.20
2018-02-04T19:14:14.979Z,1.20
2018-02-04T19:16:41.213Z,1.20
2018-02-04T19:19:09.008Z,1.20
2018-02-04T19:21:36.059Z,1.20
2018-02-04T19:24:02.262Z,1.20
2018-02-04T19:26:28.488Z,1.20
2018-02-04T19:28:54.703Z,1.20
2018-02-04T19:31:20.901Z,1.20
2018-02-04T19:33:47.100Z,1.30
2018-02-04T19:36:13.298Z,1.30
2018-02-04T19:38:39.549Z,1.30
2018-02-04T19:41:05.764Z,1.30
2018-02-04T19:43:32.729Z,1.30
2018-02-04T19:45:59.203Z,1.30
2018-02-04T19:48:25.415Z,1.30
2018-02-04T19:50:52.219Z,1.30
2018-02-04T19:53:18.431Z,1.40
2018-02-04T19:55:44.888Z,1.40
2018-02-04T19:58:11.263Z,1.40
2018-02-04T20:00:37.769Z,1.40
2018-02-04T20:03:04.298Z,1.40
2018-02-04T20:05:31.236Z,1.40
2018-02-04T20:08:14.288Z,1.40
2018-02-04T20:10:40.516Z,1.40
2018-02-04T20:13:07.253Z,1.40
2018-02-04T20:15:33.834Z,1.30
2018-02-04T20:18:00.847Z,1.30
2018-02-04T20:20:27.537Z,1.30
2018-02-04T20:22:53.734Z,1.30
2018-02-04T20:25:20.211Z,1.30
2018-02-04T20:27:46.913Z,1.30
2018-02-04T20:30:13.939Z,1.20
2018-02-04T20:32:52.602Z,1.20
2018-02-04T20:35:19.044Z,1.20
2018-02-04T20:37:45.227Z,1.20
2018-02-04T20:40:11.758Z,1.10
2018-02-04T20:42:38.151Z,1.10
2018-02-04T20:45:04.453Z,1.00
2018-02-04T20:47:30.770Z,1.00
2018-02-04T20:49:57.712Z,1.00
2018-02-04T20:52:24.062Z,0.90
2018-02-04T20:54:50.298Z,0.90
2018-02-04T20:57:17.350Z,0.90
2018-02-04T20:59:44.335Z,0.90
2018-02-04T21:02:10.789Z,0.90
2018-02-04T21:04:39.630Z,0.80
2018-02-04T21:07:07.857Z,0.80
2018-02-04T21:09:35.828Z,0.80
2018-02-04T21:12:20.788Z,0.80
2018-02-04T21:14:52.432Z,0.80
2018-02-04T21:17:20.300Z,0.80
2018-02-04T21:19:47.304Z,0.70
2018-02-04T21:22:13.647Z,0.70
2018-02-04T21:24:39.840Z,0.70
2018-02-04T21:27:06.081Z,0.70
2018-02-04T21:29:32.520Z,0.70
2018-02-04T21:31:58.742Z,0.70
2018-02-04T21:34:25.600Z,0.70
2018-02-04T21:36:51.829Z,0.70
2018-02-04T21:39:19.637Z,0.60
2018-02-04T21:41:45.928Z,0.70
2018-02-04T21:44:12.880Z,0.70
2018-02-04T21:46:39.056Z,0.70
2018-02-04T21:49:05.394Z,0.70
2018-02-04T21:51:31.967Z,0.70
2018-02-04T21:53:58.957Z,0.70
2018-02-04T21:56:25.197Z,0.70
2018-02-04T21:58:52.631Z,0.70
2018-02-04T22:01:19.876Z,0.80
2018-02-04T22:03:46.304Z,0.80
2018-02-04T22:06:13.593Z,0.80
2018-02-04T22:08:39.819Z,0.80
2018-02-04T22:11:06.023Z,0.80
2018-02-04T22:13:32.252Z,0.80
2018-02-04T22:15:59.263Z,0.80
2018-02-04T22:18:25.695Z,0.80
2018-02-04T22:20:51.868Z,0.70
2018-02-04T22:23:18.051Z,0.70
2018-02-04T22:25:44.225Z,0.70
2018-02-04T22:28:10.685Z,0.70
2018-02-04T22:30:37.006Z,0.70
2018-02-04T22:33:03.487Z,0.70
2018-02-04T22:35:31.022Z,0.60
2018-02-04T22:37:57.271Z,0.60
2018-02-04T22:40:24.216Z,0.50
2018-02-04T22:42:51.152Z,0.50
2018-02-04T22:45:17.363Z,0.50
2018-02-04T22:47:43.585Z,0.50
2018-02-04T22:50:09.769Z,0.50
2018-02-04T22:52:36.154Z,0.50
2018-02-04T22:55:02.492Z,0.40
2018-02-04T22:57:29.146Z,0.30
2018-02-04T22:59:55.366Z,0.30
2018-02-04T23:02:22.311Z,0.30
2018-02-04T23:04:49.795Z,0.30
2018-02-04T23:07:15.996Z,0.30
2018-02-04T23:09:42.239Z,0.30
2018-02-04T23:12:08.423Z,0.30
2018-02-04T23:14:34.643Z,0.30
2018-02-04T23:17:00.822Z,0.30
2018-02-04T23:19:27.085Z,0.30
2018-02-04T23:21:53.960Z,0.30
2018-02-04T23:24:21.815Z,0.30
2018-02-04T23:26:48.956Z,0.30
2018-02-04T23:29:15.944Z,0.30
2018-02-04T23:31:42.114Z,0.20
2018-02-04T23:34:08.303Z,0.20
2018-02-04T23:36:34.508Z,0.20
2018-02-04T23:39:01.437Z,0.20
2018-02-04T23:41:27.648Z,0.10
2018-02-04T23:43:53.842Z,0.20
2018-02-04T23:46:20.079Z,0.20
2018-02-04T23:48:46.395Z,0.20
2018-02-04T23:51:12.576Z,0.20
2018-02-04T23:53:38.842Z,0.20
2018-02-04T23:56:05.025Z,0.30
2018-02-04T23:58:31.947Z,0.30
